Soaring Guidance
Issued by NWS Reno, NV

Home | Current Version | Previous Version | Text Only | Print | Product List | Glossary On
Versions: 1 2 3 4 5 6 7 8 9 10 11 12 13 14
000
UXUS97 KREV 281346
SRGREV

SOARING FORECAST
NATIONAL WEATHER SERVICE - RENO NV
700 AM PDT SUN MAY 28 2017

THIS SOARING FORECAST IS FOR THE EASTERN SIERRA AND WESTERN NEVADA
WITH SPECIFIC INDICES FOR THE GREATER RENO AREA.

THIS FORECAST IS PREPARED DAILY BY 700 AM AND IS NOT UPDATED.

FOR CURRENT FLIGHT CONDITIONS...FORECASTS...AND ADVISORIES...ACCESS
YOUR LOCAL BRIEFING OUTLET OR FLIGHT SERVICE STATION.

*******************************************************************
FORECASTED LOCAL INDICES FOR RENO:        TODAY     YESTERDAY
FORECASTED MAX TEMP AT RENO (DEG F).....     85          81
FORECASTED TRIGGER TEMPERATURE (DEG F)..     70          61
   EXCEEDED YESTERDAY BY 055 AM PDT
FORECASTED MAXIMUM ALTITUDE (FT MSL)....  16800       14200
FORECASTED SOARING INDEX (FPM)..........   1074         636
FORECASTED K-INDEX.........VALID 18Z....     11          17
FORECASTED K-INDEX.........VALID 00Z....     13          18
FORECASTED LIFTED INDEX....VALID 18Z....      4           7
FORECASTED LIFTED INDEX....VALID 00Z....      2           6

AFTERNOON WINDS ALOFT FORECAST
MSL (FT) WIND/TEMP
9000  9900/+13
10000 9900/+10
12000 9900/+04
14000 9900/-01
16000 9900/-07
18000 99 0/-13
24000 9900/-26
30000 0806/-41
34000 0706/-50
39000 3306/-59

SLIDE MOUNTAIN DATA:
     DATE       TIME     TEMP  DEWPT   RH         WIND (MPH)
                        (F)   (F)           | DIR  SPEED GUST
2017-05-28    05:20      45    22     28    | 040   12   13
2017-05-28    05:00      45    23     29    | 040   12   14
2017-05-28    04:50      44    23     30    | 048   10   13
2017-05-28    04:30      44    23     30    | 058   12   15

RENO TAF FORECAST:
KRNO 281122Z 2812/2912 VRB04KT P6SM SKC
     FM282200 36009KT P6SM FEW090
     FM290300 VRB04KT P6SM SKC

CARSON CITY TAF FORECAST:
KCXP 281122Z 2812/2912 VRB04KT P6SM SKC
     FM281700 06008KT P6SM FEW090
     FM290200 VRB03KT P6SM SKC

OUTLOOK FOR THE RENO-CARSON CITY-MINDEN AREA:
.MEMORIAL DAY...SUNNY IN THE MORNING THEN BECOMING PARTLY CLOUDY.
HIGHS 87 TO 92. LIGHT WINDS BECOMING SOUTHWEST UP TO 10 MPH IN
THE AFTERNOON.

SUNRISE AND SUNSET
MAY 28 2017...........SUNRISE   536 AM PDT   SUNSET   818 PM PDT
MAY 29 2017...........SUNRISE   535 AM PDT   SUNSET   818 PM PDT


USA.gov is the U.S. government's official web portal to all federal, state and local government web resources and services.